Flight Track Log - Related Links

Times and Time Zones

All times are in EDT time to prevent confusion due to time zone crossing. See the AMF1026 flight status page for this flight to view local times or setup timezone preferences in your user account.

Time Position Orientation Groundspeed Altitude Reporting Facility
EDT Latitude Longitude Course Direction KTS MPH feet Rate Location/Type
Mon 08:54:50 PM 42.7361 -73.8111 270° West 127 146 900  Level Boston Center
Mon 08:55:57 PM 42.7125 -73.8531 233° Southwest 174 200 2,400 1,417 Climbing Boston Center
Mon 08:56:57 PM 42.7097 -73.9236 267° West 195 224 3,900 1,373 Climbing Boston Center
Mon 08:57:55 PM 42.7108 -73.9942 271° West 261 300 5,100 1,373 Climbing Boston Center
Mon 08:58:55 PM 42.7306 -74.0597 292° West 227 261 6,600 1,350 Climbing Boston Center
Mon 08:59:55 PM 42.7464 -74.1253 288° West 187 215 7,800 1,150 Climbing Boston Center
Mon 09:00:00 PM 42.7333 -74.2716 270° West  Level FlightAware Approximate
Mon 09:00:55 PM 42.7453 -74.1900 269° West 182 209 8,900  Level Boston Center
Mon 09:01:55 PM 42.7483 -74.2694 273° West 188 216 10,200 1,250 Climbing Boston Center
Mon 09:02:55 PM 42.7453 -74.3317 266° West 188 216 11,400 1,100 Climbing Boston Center
Mon 09:03:55 PM 42.7189 -74.4042 244° Southwest 193 222 12,400 950 Climbing Boston Center
Mon 09:04:55 PM 42.6950 -74.4656 242° Southwest 198 228 13,300 900 Climbing Boston Center
Mon 09:05:55 PM 42.6708 -74.5383 246° West 198 228 14,200 750 Climbing Boston Center
Mon 09:06:55 PM 42.6528 -74.6025 249° West 198 228 14,800 591 Climbing Boston Center
Mon 09:08:07 PM 42.6325 -74.6808 251° West 198 228 15,500 545 Climbing Boston Center
Mon 09:09:07 PM 42.6122 -74.7675 252° West 204 235 16,000 250 Climbing Boston Center
Mon 09:10:07 PM 42.5939 -74.8431 252° West 215 247 16,000 30 Level Boston Center
Mon 09:12:28 PM 42.5311 -75.0475 247° West 251 289 16,100  Climbing New York Center
Mon 09:13:29 PM 42.5050 -75.1356 248° West 251 289 16,000 -50 Descending New York Center
Mon 09:14:28 PM 42.4792 -75.2183 247° West 256 295 16,000  Level New York Center
Mon 09:15:29 PM 42.4528 -75.3064 248° West 251 289 16,000  Level New York Center
Mon 09:16:27 PM 42.4286 -75.3944 250° West 251 289 16,000  Level New York Center
Mon 09:17:27 PM 42.4003 -75.4825 246° West 251 289 16,000  Level New York Center
Mon 09:18:29 PM 42.3717 -75.5703 246° West 251 289 16,000  Level New York Center
Mon 09:19:27 PM 42.3431 -75.6606 247° West 251 289 16,000  Level New York Center
Mon 09:20:28 PM 42.3164 -75.7511 248° West 257 296 16,000  Level New York Center
Mon 09:21:28 PM 42.2878 -75.8414 247° West 262 302 16,000  Level New York Center
Mon 09:22:28 PM 42.2611 -75.9292 248° West 262 302 16,000  Level New York Center
Mon 09:23:28 PM 42.2342 -76.0194 248° West 267 307 16,000  Level New York Center
Mon 09:24:27 PM 42.2072 -76.1094 248° West 267 307 16,000  Level New York Center
Mon 09:25:27 PM 42.1786 -76.1911 245° Southwest 267 307 16,000  Level New York Center
Mon 09:26:29 PM 42.1536 -76.2786 249° West 261 300 16,000  Level New York Center
Mon 09:28:00 PM 42.1099 -76.4032 245° Southwest  Level FlightAware Approximate
Mon 09:29:27 PM 42.0772 -76.5322 245° Southwest 261 300 16,000  Level New York Center
Mon 09:31:28 PM 42.0208 -76.7031 246° West 256 295 16,000  Level New York Center
Mon 09:32:28 PM 41.9939 -76.7844 246° West 251 289 16,000  Level New York Center
Mon 09:34:11 PM 41.9481 -76.9339 248° West 249 287 16,000  Level Cleveland Center
Mon 09:35:00 PM 41.9066 -76.9757 245° Southwest  Level FlightAware Approximate
Mon 09:35:11 PM 41.9172 -77.0194 244° Southwest 249 287 16,000  Level Cleveland Center
Mon 09:36:11 PM 41.8906 -77.1047 247° West 249 287 16,000  Level Cleveland Center
Mon 09:37:11 PM 41.8619 -77.1897 246° West 249 287 16,000  Level Cleveland Center
Mon 09:38:11 PM 41.8353 -77.2775 248° West 254 292 16,000  Level Cleveland Center
Mon 09:39:11 PM 41.8086 -77.3625 247° West 254 292 16,000  Level Cleveland Center
Mon 09:40:11 PM 41.7839 -77.4475 249° West 254 292 16,000  Level Cleveland Center
Mon 09:41:11 PM 41.7550 -77.5353 246° West 254 292 16,000  Level Cleveland Center
Mon 09:42:11 PM 41.7281 -77.6228 248° West 259 298 16,000  Level Cleveland Center
Mon 09:43:11 PM 41.7031 -77.7072 248° West 253 291 16,000  Level Cleveland Center
Mon 09:44:11 PM 41.6739 -77.7892 245° Southwest 253 291 16,000  Level Cleveland Center
Mon 09:45:11 PM 41.6444 -77.8739 245° Southwest 253 291 16,000  Level Cleveland Center
Mon 09:46:11 PM 41.6150 -77.9528 243° Southwest 253 291 16,000  Level Cleveland Center
Mon 09:47:11 PM 41.5858 -78.0375 245° Southwest 253 291 16,000  Level Cleveland Center
Mon 09:48:11 PM 41.5583 -78.1217 246° West 248 285 16,000  Level Cleveland Center
Mon 09:49:11 PM 41.5269 -78.2144 246° West 248 285 16,000  Level Cleveland Center
Mon 09:50:11 PM 41.4975 -78.2986 245° Southwest 248 285 16,000  Level Cleveland Center
Mon 09:51:11 PM 41.4697 -78.3800 246° West 248 285 16,000  Level Cleveland Center
Mon 09:52:11 PM 41.4422 -78.4642 246° West 248 285 16,000  Level Cleveland Center
Mon 09:53:11 PM 41.4144 -78.5453 245° Southwest 248 285 16,000  Level Cleveland Center
Mon 09:54:11 PM 41.3847 -78.6292 245° Southwest 248 285 16,000  Level Cleveland Center
Mon 09:55:11 PM 41.3611 -78.7186 251° West 253 291 16,000  Level Cleveland Center
Mon 09:56:11 PM 41.3311 -78.7967 243° Southwest 253 291 16,000  Level Cleveland Center
Mon 09:57:11 PM 41.3011 -78.8806 245° Southwest 253 291 16,000  Level Cleveland Center
Mon 09:58:11 PM 41.2750 -78.9531 244° Southwest 253 291 16,000  Level Cleveland Center
Mon 09:59:11 PM 41.2469 -79.0367 246° West 253 291 16,000  Level Cleveland Center
Mon 10:00:11 PM 41.2189 -79.1172 245° Southwest 253 291 16,000  Level Cleveland Center
Mon 10:01:11 PM 41.1908 -79.2008 246° West 253 291 16,000  Level Cleveland Center
Mon 10:02:11 PM 41.1606 -79.2953 247° West 253 291 16,000  Level Cleveland Center
Mon 10:03:11 PM 41.1344 -79.3783 247° West 253 291 16,000  Level Cleveland Center
Mon 10:04:11 PM 41.1061 -79.4617 246° West 253 291 16,000  Level Cleveland Center
Mon 10:05:11 PM 41.0756 -79.5419 243° Southwest 253 291 16,000  Level Cleveland Center
Mon 10:06:11 PM 41.0450 -79.6222 243° Southwest 253 291 16,000  Level Cleveland Center
Mon 10:07:11 PM 41.0122 -79.7025 242° Southwest 248 285 16,000  Level Cleveland Center
Mon 10:08:11 PM 40.9817 -79.7828 243° Southwest 248 285 16,000  Level Cleveland Center
Mon 10:09:11 PM 40.9489 -79.8656 242° Southwest 248 285 16,000  Level Cleveland Center
Mon 10:10:11 PM 40.9200 -79.9483 245° Southwest 248 285 16,000  Level Cleveland Center
Mon 10:11:11 PM 40.8914 -80.0283 245° Southwest 248 285 16,000  Level Cleveland Center
Mon 10:12:11 PM 40.8606 -80.1081 243° Southwest 248 285 16,000  Level Cleveland Center
Mon 10:13:11 PM 40.8294 -80.1906 244° Southwest 248 285 16,000  Level Cleveland Center
Mon 10:14:11 PM 40.8047 -80.2758 249° West 243 280 16,000  Level Cleveland Center
Mon 10:15:11 PM 40.7819 -80.3500 248° West 243 280 16,000  Level Cleveland Center
Mon 10:16:11 PM 40.7550 -80.4350 247° West 253 291 16,000 -50 Level Cleveland Center
Mon 10:17:11 PM 40.7239 -80.5228 245° Southwest 247 284 15,900  Descending Cleveland Center
Mon 10:18:11 PM 40.6967 -80.6050 246° West 252 290 16,000 50 Climbing Cleveland Center
Mon 10:19:11 PM 40.6675 -80.6872 245° Southwest 252 290 16,000  Level Cleveland Center
Mon 10:20:11 PM 40.6425 -80.7636 247° West 252 290 16,000  Level Cleveland Center
Mon 10:21:11 PM 40.6150 -80.8456 246° West 252 290 16,000  Level Cleveland Center
Mon 10:22:11 PM 40.5817 -80.9247 241° Southwest 252 290 16,000  Level Cleveland Center
Mon 10:23:11 PM 40.5458 -81.0039 239° Southwest 252 290 16,000  Level Cleveland Center
Mon 10:24:11 PM 40.5122 -81.0828 241° Southwest 252 290 16,000  Level Cleveland Center
Mon 10:25:11 PM 40.4783 -81.1644 241° Southwest 252 290 16,000  Level Cleveland Center
Mon 10:26:53 PM 40.4250 -81.2925 241° Southwest 252 290 16,000  Level Indianapolis Center
Mon 10:27:55 PM 40.3844 -81.3878 241° Southwest 254 292 16,000  Level Indianapolis Center
Mon 10:28:56 PM 40.3522 -81.4697 243° Southwest 251 289 16,000  Level Indianapolis Center
Mon 10:29:57 PM 40.3192 -81.5500 242° Southwest 248 285 16,000  Level Indianapolis Center
Mon 10:30:59 PM 40.2853 -81.6300 241° Southwest 248 285 16,000  Level Indianapolis Center
Mon 10:32:00 PM 40.2519 -81.7117 242° Southwest 250 288 16,000  Level Indianapolis Center
Mon 10:33:02 PM 40.2208 -81.7944 244° Southwest 248 285 16,000  Level Indianapolis Center
Mon 10:34:03 PM 40.1908 -81.8783 245° Southwest 252 290 16,000  Level Indianapolis Center
Mon 10:35:04 PM 40.1600 -81.9614 244° Southwest 251 289 16,000  Level Indianapolis Center
Mon 10:36:06 PM 40.1275 -82.0439 243° Southwest 253 291 16,000  Level Indianapolis Center
Mon 10:37:07 PM 40.0969 -82.1261 244° Southwest 251 289 16,000  Level Indianapolis Center
Mon 10:38:09 PM 40.0658 -82.2092 244° Southwest 252 290 16,000  Level Indianapolis Center
Mon 10:39:10 PM 40.0361 -82.2936 245° Southwest 254 292 16,000  Level Indianapolis Center
Mon 10:40:12 PM 40.0050 -82.3772 244° Southwest 253 291 16,000 -49 Level Indianapolis Center
Mon 10:41:13 PM 39.9706 -82.4756 245° Southwest 253 291 15,900 -49 Descending Indianapolis Center
Mon 10:42:15 PM 39.9406 -82.5592 245° Southwest 254 292 15,900  Level Indianapolis Center
Mon 10:43:16 PM 39.9097 -82.6431 244° Southwest 253 291 15,900 49 Level Indianapolis Center
Mon 10:44:18 PM 39.8781 -82.7256 243° Southwest 253 291 16,000 49 Climbing Indianapolis Center
Mon 10:45:19 PM 39.8478 -82.8106 245° Southwest 255 293 16,000 -49 Level Indianapolis Center
Mon 10:46:21 PM 39.8164 -82.8933 244° Southwest 254 292 15,900  Descending Indianapolis Center
Mon 10:47:22 PM 39.7819 -82.9758 242° Southwest 256 295 16,000 49 Climbing Indianapolis Center
Mon 10:48:24 PM 39.7458 -83.0583 240° Southwest 257 296 16,000 -49 Level Indianapolis Center
Mon 10:49:25 PM 39.7094 -83.1392 240° Southwest 257 296 15,900 -341 Descending Indianapolis Center
Mon 10:50:27 PM 39.6708 -83.2225 239° Southwest 264 304 15,300 -780 Descending Indianapolis Center
Mon 10:51:28 PM 39.6281 -83.3122 238° Southwest 284 327 14,300 -878 Descending Indianapolis Center
Mon 10:52:30 PM 39.5881 -83.4036 240° Southwest 287 330 13,500 -780 Descending Indianapolis Center
Mon 10:53:31 PM 39.5511 -83.4936 242° Southwest 281 323 12,700 -829 Descending Indianapolis Center
Mon 10:54:33 PM 39.5172 -83.5864 245° Southwest 281 323 11,800 -780 Descending Indianapolis Center
Mon 10:55:34 PM 39.4842 -83.6797 245° Southwest 281 323 11,100 -390 Descending Indianapolis Center
Mon 10:56:36 PM 39.4497 -83.7683 243° Southwest 274 315 11,000 -98 Descending Indianapolis Center
Mon 10:57:37 PM 39.4083 -83.8650 241° Southwest 261 300 10,900  Descending Indianapolis Center
Mon 10:58:39 PM 39.3683 -83.9450 237° Southwest 263 303 11,000 98 Climbing Indianapolis Center
Mon 10:59:40 PM 39.3275 -84.0236 236° Southwest 261 300 11,100 -195 Climbing Indianapolis Center
Mon 11:00:42 PM 39.2806 -84.0969 230° Southwest 267 307 10,600 -878 Descending Indianapolis Center
Mon 11:01:43 PM 39.2197 -84.1664 221° Southwest 285 328 9,300 -1,024 Descending Indianapolis Center
Mon 11:02:45 PM 39.1581 -84.2361 221° Southwest 291 335 8,500 -829 Descending Indianapolis Center
Mon 11:03:46 PM 39.1036 -84.3114 227° Southwest 287 330 7,600 -1,024 Descending Indianapolis Center
Mon 11:04:48 PM 39.0678 -84.4000 243° Southwest 278 320 6,400 -1,317 Descending Indianapolis Center
Mon 11:05:49 PM 39.0300 -84.4975 244° Southwest 275 316 4,900 -1,538 Descending Indianapolis Center
Mon 11:07:28 PM 38.9925 -84.6156 248° West 186 214 2,300 -1,343 Descending Indianapolis Center
Mon 11:08:03 PM 39.0000 -84.6500 286° West 130 150 1,900 -758 Descending Cincinnati TRACON
Mon 11:09:03 PM 39.0333 -84.6667 339° North 124 143 1,100 -800 Descending Cincinnati TRACON
Mon 11:11:00 PM 39.0488 -84.6678 265° West  Level Estimated

Login

Don't have an account? Register now (free) for customized features, flight alerts, and more!